Impacts TAF Board
For situational awareness. Not to be used for flight planning purposes.
IDs:

KHOU - Houston/Hobby Arpt, TX, US

Issued at 1734 UTC 02 Oct 2022
Updated at 1926 UTC 02 Oct 2022
Potential Impact None Slight Moderate High
Time1853Z 02/20Z 02/21Z 02/22Z 02/23Z 03/00Z 03/01Z 03/02Z 03/03Z 03/04Z 03/05Z 03/06Z 03/07Z 03/08Z>>
Type OBS PRVL PRVL PRVL PRVL PRVL PRVL PRVL PRVL PRVL PRVL PRVL PRVL PRVL
VIS 10 >6 >6 >6 >6 >6 >6 >6 >6 >6 >6 >6 >6 >6
CIG 250 -- -- -- -- -- -- -- -- -- -- -- -- --
Cover BKN SCT SCT SCT SCT SCT SCT SCT SCT SCT SCT SCT SCT SCT
FltCat VFR VFR VFR VFR VFR VFR VFR VFR VFR VFR VFR VFR VFR VFR
WX -- -- -- -- -- -- -- -- -- -- -- -- -- --
WDir 340 80 80 80 80 80 80 80 VRB VRB VRB VRB VRB VRB
WSpd 9 8 8 8 8 8 8 8 2 2 2 2 2 2
WGst 18 -- -- -- -- -- -- -- -- -- -- -- -- --
WSHgt -- -- -- -- -- -- -- -- -- -- -- -- -- --
WSDir -- -- -- -- -- -- -- -- -- -- -- -- -- --
WSSpd -- -- -- -- -- -- -- -- -- -- -- -- -- --
R04/22
XWnd 8 -5 -5 -5 -5 -5 -5 -5 VRB VRB VRB VRB VRB VRB
XGst 16 -- -- -- -- -- -- -- -- -- -- -- -- --
HWnd 4 6 6 6 6 6 6 6 VRB VRB VRB VRB VRB VRB
HGst 8 -- -- -- -- -- -- -- -- -- -- -- -- --
R13/31
XWnd 4 6 6 6 6 6 6 6 VRB VRB VRB VRB VRB VRB
XGst 8 -- -- -- -- -- -- -- -- -- -- -- -- --
HWnd -8 5 5 5 5 5 5 5 VRB VRB VRB VRB VRB VRB
HGst -16 -- -- -- -- -- -- -- -- -- -- -- -- --
Raw TAF
KHOU 021734Z 0218/0318 08008KT P6SM SCT250
  FM030300 VRB02KT P6SM SCT250
  FM031500 06005KT P6SM BKN250


Raw METAR
KHOU 021853Z 34009G18KT 10SM BKN250 29/05 A3010 RMK AO2 SLP196 T02940050
KHOU 021753Z 34004G16KT 10SM SCT250 28/07 A3012 RMK AO2 SLP203 T02830067 10283 20144 58010
KHOU 021653Z VRB05KT 10SM SCT250 27/08 A3014 RMK AO2 SLP211 T02720078

METAR Board
Radar Display
Forecast Discussion
For situational awareness. Not to be used for flight planning purposes.